Time;durP1;ratioP1;P1;durP2;ratioP2;P2;SDS_P1;SDS_P2;PMS_P1;PMS_P2;Temp;Humidity;BMP_temperature;BMP_pressure;BME280_temperature;BME280_humidity;BME280_pressure;Samples;Min_cycle;Max_cycle;Signal;HPM_P1;HPM_P2
2022/02/12 00:01:37;;;;;;;38.55;22.30;;;0.20;49.00;;;;;;7385502;19;20028;-59
2022/02/12 00:04:07;;;;;;;35.40;23.13;;;0.20;48.80;;;;;;7369324;19;20360;-60
2022/02/12 00:06:37;;;;;;;36.30;22.00;;;0.20;49.20;;;;;;7367055;19;20097;-58
2022/02/12 00:09:10;;;;;;;40.08;22.95;;;0.10;49.30;;;;;;7369404;19;20010;-58
2022/02/12 00:11:40;;;;;;;39.10;22.88;;;0.10;49.20;;;;;;7364344;19;20073;-60
2022/02/12 00:14:09;;;;;;;44.08;23.42;;;0.10;49.20;;;;;;7365865;19;20019;-59
2022/02/12 00:16:39;;;;;;;40.20;23.40;;;0.20;49.50;;;;;;7391784;19;20078;-61
2022/02/12 00:19:09;;;;;;;38.45;22.92;;;0.10;49.20;;;;;;7366850;19;20025;-59
2022/02/12 00:21:40;;;;;;;40.70;22.20;;;0.00;49.10;;;;;;7361999;19;20017;-58
2022/02/12 00:24:12;;;;;;;40.85;23.08;;;0.10;49.60;;;;;;7368672;19;21075;-60
2022/02/12 00:26:42;;;;;;;34.05;21.70;;;0.00;49.30;;;;;;7370601;19;20031;-60
2022/02/12 00:29:12;;;;;;;38.35;23.02;;;0.00;49.40;;;;;;7365025;19;20023;-59
2022/02/12 00:31:44;;;;;;;35.15;22.02;;;0.00;49.50;;;;;;7385907;19;20018;-59
2022/02/12 00:34:14;;;;;;;41.92;22.45;;;0.00;49.50;;;;;;7365549;19;20016;-59
2022/02/12 00:36:44;;;;;;;34.95;22.42;;;0.00;49.30;;;;;;7365793;19;20010;-59
2022/02/12 00:39:17;;;;;;;35.15;21.85;;;-0.10;49.30;;;;;;7366313;19;20526;-59
2022/02/12 00:41:46;;;;;;;38.75;23.42;;;-0.10;49.30;;;;;;7362173;19;20503;-59
2022/02/12 00:44:17;;;;;;;46.20;23.15;;;-0.10;49.50;;;;;;7365244;19;20031;-59
2022/02/12 00:46:47;;;;;;;37.78;21.63;;;-0.10;49.90;;;;;;7390314;19;20354;-60
2022/02/12 00:49:17;;;;;;;38.28;22.50;;;-0.20;49.40;;;;;;7365926;19;20018;-59
2022/02/12 00:51:49;;;;;;;33.88;21.15;;;-0.10;49.80;;;;;;7359400;19;20018;-59
2022/02/12 00:54:22;;;;;;;38.53;21.55;;;-0.20;49.80;;;;;;7367625;19;20078;-59
2022/02/12 00:56:52;;;;;;;36.60;21.65;;;-0.10;49.90;;;;;;7369294;19;20381;-59
2022/02/12 00:59:22;;;;;;;39.22;20.73;;;-0.20;49.80;;;;;;7364882;19;20017;-59
2022/02/12 01:01:52;;;;;;;38.75;20.35;;;-0.20;49.90;;;;;;7361697;19;20018;-60
2022/02/12 01:04:23;;;;;;;38.78;20.83;;;-0.30;49.80;;;;;;7384595;19;20010;-60
2022/02/12 01:06:56;;;;;;;40.45;22.38;;;-0.30;49.80;;;;;;7364387;19;20473;-59
2022/02/12 01:09:31;;;;;;;44.35;24.80;;;-0.30;49.90;;;;;;7367123;19;20017;-59
2022/02/12 01:12:01;;;;;;;42.08;23.65;;;-0.20;50.60;;;;;;7361192;19;20018;-59
2022/02/12 01:14:31;;;;;;;49.40;25.48;;;-0.30;49.90;;;;;;7363155;19;20015;-59
2022/02/12 01:17:01;;;;;;;45.55;24.00;;;-0.40;49.70;;;;;;7367698;19;20014;-59
2022/02/12 01:19:31;;;;;;;44.90;25.02;;;-0.40;49.80;;;;;;7385766;19;20020;-59
2022/02/12 01:22:01;;;;;;;43.95;25.27;;;-0.30;49.90;;;;;;7358977;19;20018;-59
2022/02/12 01:24:34;;;;;;;42.20;25.10;;;-0.50;49.70;;;;;;7366127;19;20093;-59
2022/02/12 01:27:05;;;;;;;49.90;26.13;;;-0.50;49.80;;;;;;7367090;19;20006;-59
2022/02/12 01:29:35;;;;;;;46.53;24.58;;;-0.40;49.90;;;;;;7364152;19;20014;-59
2022/02/12 01:32:06;;;;;;;44.25;26.33;;;-0.50;49.70;;;;;;7360167;19;20018;-59
2022/02/12 01:34:37;;;;;;;45.55;26.02;;;-0.50;49.80;;;;;;7387981;19;20010;-60
2022/02/12 01:37:10;;;;;;;49.60;26.02;;;-0.40;50.10;;;;;;7364982;19;20372;-59
2022/02/12 01:39:43;;;;;;;47.33;26.10;;;-0.50;50.10;;;;;;7362463;19;20491;-59
2022/02/12 01:42:13;;;;;;;47.58;27.38;;;-0.50;50.30;;;;;;7361473;19;20019;-59
2022/02/12 01:44:43;;;;;;;45.88;25.95;;;-0.60;50.10;;;;;;7364119;19;20017;-59
2022/02/12 01:47:14;;;;;;;48.58;26.20;;;-0.60;50.30;;;;;;7365507;19;20383;-59
2022/02/12 01:49:45;;;;;;;47.53;26.65;;;-0.60;50.40;;;;;;7386191;19;20025;-59
2022/02/12 01:52:16;;;;;;;51.83;28.15;;;-0.60;50.50;;;;;;7358774;19;20039;-59
2022/02/12 01:54:49;;;;;;;46.45;27.90;;;-0.60;50.70;;;;;;7362798;19;20014;-59
2022/02/12 01:57:19;;;;;;;45.38;27.02;;;-0.60;50.60;;;;;;7367129;19;20011;-59
2022/02/12 01:59:50;;;;;;;43.85;25.70;;;-0.70;50.70;;;;;;7363354;19;20482;-59
2022/02/12 02:02:20;;;;;;;41.88;25.88;;;-0.60;50.80;;;;;;7358372;19;20011;-59
2022/02/12 02:04:51;;;;;;;43.97;25.45;;;-0.60;50.90;;;;;;7366393;19;20022;-59
2022/02/12 02:07:22;;;;;;;47.85;26.40;;;-0.70;50.80;;;;;;7385714;19;20014;-59
2022/02/12 02:09:56;;;;;;;48.55;24.83;;;-0.80;50.60;;;;;;7362373;19;20014;-59
2022/02/12 02:12:25;;;;;;;51.50;25.88;;;-0.90;50.70;;;;;;7359446;19;20006;-60
2022/02/12 02:14:55;;;;;;;44.47;25.15;;;-0.90;50.60;;;;;;7364678;19;20085;-59
2022/02/12 02:17:25;;;;;;;46.72;26.38;;;-0.90;50.70;;;;;;7363845;19;20512;-59
2022/02/12 02:19:55;;;;;;;44.92;24.02;;;-0.90;50.80;;;;;;7362635;19;20036;-60
2022/02/12 02:22:31;;;;;;;37.42;22.52;;;-1.00;50.60;;;;;;7379812;19;20026;-59
2022/02/12 02:25:03;;;;;;;39.63;21.33;;;-1.10;50.70;;;;;;7362733;19;20010;-59
2022/02/12 02:27:33;;;;;;;40.03;21.98;;;-1.10;50.80;;;;;;7365542;19;20022;-60
2022/02/12 02:30:03;;;;;;;37.70;22.15;;;-1.20;50.80;;;;;;7362926;19;20022;-59
2022/02/12 02:32:33;;;;;;;54.13;25.95;;;-1.10;51.00;;;;;;7358522;19;20467;-59
2022/02/12 02:35:03;;;;;;;54.08;25.63;;;-1.30;50.70;;;;;;7365088;19;20077;-59
2022/02/12 02:37:33;;;;;;;114.60;26.73;;;-1.40;50.60;;;;;;7384741;19;20028;-59
2022/02/12 02:40:13;;;;;;;81.75;25.75;;;-1.50;50.40;;;;;;7360169;19;20082;-59
2022/02/12 02:42:44;;;;;;;163.82;32.05;;;-1.60;50.30;;;;;;7359483;19;20022;-59
2022/02/12 02:45:14;;;;;;;48.10;23.40;;;-1.60;50.40;;;;;;7363242;19;20450;-59
2022/02/12 02:47:45;;;;;;;285.15;35.03;;;-1.60;50.40;;;;;;7362570;19;20026;-58
2022/02/12 02:58:27;;;;;;;58.25;26.08;;;-1.80;50.20;;;;;;7362386;19;20017;-59
2022/02/12 03:00:58;;;;;;;128.07;29.60;;;-1.70;50.40;;;;;;7360086;19;20094;-59
2022/02/12 03:03:29;;;;;;;56.95;26.55;;;-1.80;50.40;;;;;;7360683;19;20016;-60
2022/02/12 03:06:00;;;;;;;89.70;27.85;;;-1.80;50.50;;;;;;7362460;19;20117;-59
2022/02/12 03:08:30;;;;;;;48.92;25.77;;;-1.70;50.80;;;;;;7362032;19;20018;-58
2022/02/12 03:11:04;;;;;;;50.13;26.40;;;-1.70;50.90;;;;;;7358233;19;20090;-58
2022/02/12 03:13:34;;;;;;;39.20;23.45;;;-1.60;51.30;;;;;;7381679;19;20778;-60
2022/02/12 03:16:04;;;;;;;40.10;23.45;;;-1.50;51.40;;;;;;7364739;19;20014;-59
2022/02/12 03:18:34;;;;;;;42.67;24.17;;;-1.50;51.50;;;;;;7360550;19;20028;-60
2022/02/12 03:21:04;;;;;;;40.60;23.25;;;-1.60;51.50;;;;;;7358457;19;20094;-60
2022/02/12 03:23:34;;;;;;;49.58;24.40;;;-1.60;51.50;;;;;;7359055;19;20102;-60
2022/02/12 03:26:07;;;;;;;55.75;25.27;;;-1.60;51.60;;;;;;7360206;19;20021;-60
2022/02/12 03:28:37;;;;;;;42.75;23.70;;;-1.60;51.50;;;;;;7386619;19;20010;-58
2022/02/12 03:31:08;;;;;;;44.47;24.35;;;-1.70;51.50;;;;;;7368157;19;20019;-60
2022/02/12 03:33:38;;;;;;;44.47;24.63;;;-1.60;51.50;;;;;;7359056;19;20029;-59
2022/02/12 03:36:08;;;;;;;49.60;24.98;;;-1.60;51.70;;;;;;7368046;19;20462;-60
2022/02/12 03:38:40;;;;;;;46.03;25.33;;;-1.70;51.60;;;;;;7370796;19;20015;-59
2022/02/12 03:41:13;;;;;;;48.90;25.80;;;-1.70;51.60;;;;;;7385359;19;20043;-59
2022/02/12 03:43:43;;;;;;;43.10;24.48;;;-1.80;51.40;;;;;;7366542;19;20027;-59
2022/02/12 03:46:14;;;;;;;48.72;24.63;;;-1.80;51.50;;;;;;7370544;19;20094;-60
2022/02/12 03:48:44;;;;;;;42.58;24.33;;;-1.70;51.60;;;;;;7364006;19;20085;-58
2022/02/12 03:51:16;;;;;;;46.63;25.05;;;-1.70;51.70;;;;;;7367131;19;20026;-59
2022/02/12 03:53:47;;;;;;;52.25;26.80;;;-1.70;51.70;;;;;;7368678;19;20074;-60
2022/02/12 03:56:22;;;;;;;51.90;24.45;;;-1.80;51.60;;;;;;7365714;19;20006;-59
2022/02/12 03:58:52;;;;;;;54.72;24.73;;;-1.90;51.50;;;;;;7388997;19;20014;-59
2022/02/12 04:01:22;;;;;;;55.55;26.27;;;-1.90;51.60;;;;;;7364334;19;20086;-59
2022/02/12 04:03:52;;;;;;;64.57;27.88;;;-1.80;51.70;;;;;;7367898;19;20019;-60
2022/02/12 04:06:23;;;;;;;69.70;27.98;;;-1.80;51.80;;;;;;7367611;19;20011;-59
2022/02/12 04:08:53;;;;;;;59.35;27.42;;;-1.90;51.70;;;;;;7368111;19;20023;-59
2022/02/12 04:11:26;;;;;;;52.85;25.27;;;-1.90;51.70;;;;;;7367215;19;20025;-59
2022/02/12 04:13:56;;;;;;;50.63;25.92;;;-1.80;51.80;;;;;;7385437;19;20078;-60
2022/02/12 04:16:29;;;;;;;48.85;25.52;;;-1.80;51.90;;;;;;7366985;19;20014;-61
2022/02/12 04:18:59;;;;;;;48.97;24.75;;;-1.80;52.00;;;;;;7367813;19;20490;-59
2022/02/12 04:21:29;;;;;;;43.25;22.67;;;-1.80;52.00;;;;;;7364028;19;20006;-59
2022/02/12 04:23:59;;;;;;;41.40;21.63;;;-1.80;52.00;;;;;;7365977;19;20411;-58
2022/02/12 04:26:32;;;;;;;38.15;22.08;;;-1.90;51.90;;;;;;7368606;19;20018;-59
2022/02/12 04:29:02;;;;;;;37.50;20.50;;;-1.90;52.00;;;;;;7387444;19;20013;-59
2022/02/12 04:31:32;;;;;;;33.28;19.33;;;-1.90;52.00;;;;;;7364351;19;20062;-60
2022/02/12 04:34:02;;;;;;;34.65;19.25;;;-1.90;52.00;;;;;;7366172;19;20021;-59
2022/02/12 04:36:32;;;;;;;41.97;21.88;;;-2.00;51.80;;;;;;7366855;19;20471;-58
2022/02/12 04:39:02;;;;;;;41.53;19.80;;;-1.90;52.00;;;;;;7366641;19;20002;-59
2022/02/12 04:41:34;;;;;;;41.72;20.55;;;-1.90;52.00;;;;;;7363113;19;21065;-59
2022/02/12 04:44:05;;;;;;;44.00;20.88;;;-1.80;52.30;;;;;;7384428;19;20010;-59
2022/02/12 04:46:35;;;;;;;42.45;20.77;;;-1.80;52.30;;;;;;7366351;19;20019;-59
2022/02/12 04:49:05;;;;;;;40.35;20.77;;;-1.80;52.30;;;;;;7366118;19;20020;-59
2022/02/12 04:51:35;;;;;;;46.22;21.75;;;-1.80;52.30;;;;;;7362200;19;20508;-59
2022/02/12 04:54:05;;;;;;;44.67;22.15;;;-1.90;52.20;;;;;;7366075;19;20483;-60
2022/02/12 04:56:38;;;;;;;42.00;21.83;;;-2.00;52.10;;;;;;7367763;19;20014;-60
2022/02/12 04:59:09;;;;;;;41.90;21.53;;;-2.00;52.00;;;;;;7387092;19;20041;-59
2022/02/12 05:01:39;;;;;;;52.17;21.73;;;-2.00;52.10;;;;;;7362296;19;20596;-59
2022/02/12 05:04:10;;;;;;;50.97;22.13;;;-2.00;52.10;;;;;;7361136;19;20010;-59
2022/02/12 05:06:40;;;;;;;49.30;22.35;;;-2.00;52.00;;;;;;7364220;19;20078;-59
2022/02/12 05:09:11;;;;;;;44.92;21.98;;;-2.10;51.70;;;;;;7365493;19;20082;-59
2022/02/12 05:11:46;;;;;;;44.05;22.13;;;-2.10;51.80;;;;;;7361701;19;20392;-59
2022/02/12 05:14:17;;;;;;;50.78;21.30;;;-2.10;51.80;;;;;;7360443;19;20026;-59
2022/02/12 05:16:47;;;;;;;44.92;21.25;;;-2.10;51.80;;;;;;7385471;19;21157;-58
2022/02/12 05:19:17;;;;;;;43.42;22.10;;;-2.00;52.00;;;;;;7365199;19;20010;-58
2022/02/12 05:21:47;;;;;;;43.17;21.40;;;-2.00;52.10;;;;;;7361842;19;20011;-58
2022/02/12 05:24:18;;;;;;;41.53;20.20;;;-1.90;52.20;;;;;;7364760;19;20022;-59
2022/02/12 05:26:50;;;;;;;46.45;21.38;;;-1.90;52.10;;;;;;7367860;19;20074;-58
2022/02/12 05:29:20;;;;;;;47.78;19.48;;;-2.00;51.90;;;;;;7364010;19;20083;-59
2022/02/12 05:31:50;;;;;;;41.55;20.50;;;-2.10;51.70;;;;;;7384893;19;20011;-59
2022/02/12 05:34:21;;;;;;;40.58;21.35;;;-2.00;51.90;;;;;;7364888;19;20014;-59
2022/02/12 05:36:51;;;;;;;39.50;18.73;;;-2.10;51.70;;;;;;7364780;19;20094;-59
2022/02/12 05:39:21;;;;;;;41.35;19.90;;;-2.00;51.90;;;;;;7365035;19;20125;-59
2022/02/12 05:41:53;;;;;;;41.83;19.58;;;-2.00;51.90;;;;;;7363722;19;20363;-58
2022/02/12 05:44:27;;;;;;;40.50;19.25;;;-2.10;51.70;;;;;;7361386;19;20060;-59
2022/02/12 05:46:58;;;;;;;43.45;19.70;;;-2.00;51.90;;;;;;7387192;19;20074;-59
2022/02/12 05:49:27;;;;;;;39.63;18.23;;;-2.00;51.80;;;;;;7364453;19;20052;-59
2022/02/12 05:52:03;;;;;;;38.08;19.13;;;-2.00;51.80;;;;;;7360007;19;20010;-59
2022/02/12 05:54:33;;;;;;;34.17;18.77;;;-2.10;51.60;;;;;;7363675;19;20033;-61
2022/02/12 05:57:06;;;;;;;32.30;16.73;;;-2.10;51.40;;;;;;7367962;19;20017;-59
2022/02/12 05:59:36;;;;;;;39.05;19.15;;;-2.20;51.30;;;;;;7362493;19;20018;-59
2022/02/12 06:02:06;;;;;;;37.97;17.80;;;-2.20;51.30;;;;;;7383161;19;20039;-59
2022/02/12 06:04:36;;;;;;;36.88;17.85;;;-2.20;51.20;;;;;;7365334;19;20081;-58
2022/02/12 06:07:06;;;;;;;29.50;15.93;;;-2.20;51.20;;;;;;7362573;19;20492;-59
2022/02/12 06:09:36;;;;;;;30.52;16.77;;;-2.20;51.10;;;;;;7362916;19;20466;-59
2022/02/12 06:12:09;;;;;;;32.38;17.13;;;-2.10;51.30;;;;;;7362633;19;20074;-58
2022/02/12 06:14:40;;;;;;;34.03;15.88;;;-2.20;51.10;;;;;;7362392;19;20466;-58
2022/02/12 06:17:10;;;;;;;31.00;16.05;;;-2.20;50.80;;;;;;7386612;19;22135;-61
2022/02/12 06:19:40;;;;;;;32.63;16.92;;;-2.20;50.70;;;;;;7362885;19;20040;-59
2022/02/12 06:22:10;;;;;;;37.42;16.42;;;-2.20;50.60;;;;;;7359611;19;20010;-59
2022/02/12 06:24:39;;;;;;;32.90;16.92;;;-2.20;50.60;;;;;;7362184;19;21203;-60
2022/02/12 06:27:12;;;;;;;36.33;16.92;;;-2.20;50.40;;;;;;7365818;19;20014;-59
2022/02/12 06:29:43;;;;;;;35.53;16.77;;;-2.20;49.90;;;;;;7361603;19;20071;-59
2022/02/12 06:32:13;;;;;;;32.40;16.90;;;-2.30;49.40;;;;;;7373568;19;20074;-60
2022/02/12 06:34:42;;;;;;;32.03;17.58;;;-2.20;49.30;;;;;;7385876;19;20015;-58
2022/02/12 06:37:12;;;;;;;30.45;16.63;;;-2.20;48.70;;;;;;7362454;19;20691;-58
2022/02/12 06:39:43;;;;;;;29.30;17.02;;;-2.20;48.60;;;;;;7362390;19;20014;-58
2022/02/12 06:42:16;;;;;;;30.00;15.75;;;-2.40;47.80;;;;;;7360509;19;20508;-59
2022/02/12 06:44:46;;;;;;;30.67;15.88;;;-2.50;47.60;;;;;;7364275;19;20081;-59
2022/02/12 06:47:16;;;;;;;27.98;14.98;;;-2.40;48.00;;;;;;7361700;19;20018;-59
2022/02/12 06:49:45;;;;;;;32.17;16.13;;;-2.50;47.30;;;;;;7383057;19;20350;-59
2022/02/12 06:52:15;;;;;;;30.92;15.30;;;-2.40;47.70;;;;;;7360588;19;20055;-59
2022/02/12 06:54:45;;;;;;;31.20;16.42;;;-2.40;47.30;;;;;;7362196;19;20082;-59
2022/02/12 06:57:18;;;;;;;28.23;15.52;;;-2.30;47.40;;;;;;7363210;19;20011;-59
2022/02/12 06:59:48;;;;;;;29.10;16.08;;;-2.40;46.80;;;;;;7361833;19;20011;-59
2022/02/12 07:02:18;;;;;;;28.92;16.05;;;-2.30;46.50;;;;;;7357049;19;20010;-60
2022/02/12 07:04:48;;;;;;;26.92;14.85;;;-2.20;46.30;;;;;;7392358;19;20010;-59
2022/02/12 07:07:18;;;;;;;26.90;16.27;;;-2.20;46.50;;;;;;7372205;19;20944;-60
2022/02/12 07:09:48;;;;;;;28.23;15.43;;;-2.10;46.00;;;;;;7367514;19;20411;-59
2022/02/12 07:12:20;;;;;;;25.10;15.23;;;-2.20;44.40;;;;;;7366020;19;20084;-59
2022/02/12 07:14:50;;;;;;;26.63;15.18;;;-2.30;44.30;;;;;;7370767;19;20089;-58
2022/02/12 07:17:20;;;;;;;26.77;15.40;;;-2.40;44.10;;;;;;7368388;19;20010;-59
2022/02/12 07:19:50;;;;;;;25.50;15.00;;;-2.20;44.40;;;;;;7387302;19;20022;-58
2022/02/12 07:22:25;;;;;;;30.05;16.48;;;-2.20;43.70;;;;;;7366758;19;20095;-58
2022/02/12 07:24:55;;;;;;;54.03;26.70;;;-2.20;43.40;;;;;;7365444;19;20011;-58
2022/02/12 07:27:28;;;;;;;49.00;23.63;;;-2.20;42.40;;;;;;7370942;19;20005;-60
2022/02/12 07:29:58;;;;;;;42.92;22.52;;;-2.10;43.10;;;;;;7368511;19;20018;-59
2022/02/12 07:32:29;;;;;;;37.85;19.35;;;-2.10;42.30;;;;;;7361020;19;20006;-60
2022/02/12 07:35:06;;;;;;;34.15;19.23;;;-2.10;41.20;;;;;;7390413;19;20478;-60
2022/02/12 07:37:36;;;;;;;30.00;16.75;;;-2.00;41.80;;;;;;7369809;19;20023;-59
2022/02/12 07:40:08;;;;;;;31.35;16.30;;;-1.80;42.00;;;;;;7367708;19;20010;-59
2022/02/12 07:42:40;;;;;;;29.30;17.17;;;-1.80;40.60;;;;;;7361527;19;20093;-59
2022/02/12 07:45:11;;;;;;;31.33;16.33;;;-1.70;40.70;;;;;;7368336;19;20018;-59
2022/02/12 07:47:41;;;;;;;28.10;14.65;;;-1.70;39.80;;;;;;7368143;19;20128;-60
2022/02/12 07:50:13;;;;;;;27.52;15.23;;;-1.60;40.50;;;;;;7388434;19;20074;-59
2022/02/12 07:52:44;;;;;;;28.48;15.27;;;-1.40;40.40;;;;;;7363292;19;20070;-59
2022/02/12 07:55:16;;;;;;;25.42;15.07;;;-1.40;39.30;;;;;;7365813;19;20014;-59
2022/02/12 07:57:49;;;;;;;25.77;15.63;;;-1.40;38.70;;;;;;7367537;19;21084;-59
2022/02/12 08:00:19;;;;;;;29.63;15.38;;;-1.20;39.80;;;;;;7366509;19;20059;-59
2022/02/12 08:02:50;;;;;;;29.70;15.85;;;-1.10;39.30;;;;;;7361418;19;20017;-59
2022/02/12 08:05:20;;;;;;;27.20;15.05;;;-1.10;38.50;;;;;;7367753;19;20465;-60
2022/02/12 08:07:50;;;;;;;25.10;14.25;;;-1.00;39.10;;;;;;7390176;19;20346;-60
2022/02/12 08:13:20;;;;;;;29.88;16.63;;;-0.90;37.80;;;;;;7358252;19;20162;-58
2022/02/12 08:15:50;;;;;;;26.20;15.40;;;-0.80;37.40;;;;;;7367335;19;20644;-59
2022/02/12 08:18:20;;;;;;;25.73;14.05;;;-0.60;37.60;;;;;;7367587;19;20006;-59
2022/02/12 08:20:50;;;;;;;22.77;12.63;;;-0.60;35.50;;;;;;7363564;19;20014;-59
2022/02/12 08:23:20;;;;;;;28.85;14.35;;;-0.50;35.10;;;;;;7363440;19;20011;-58
2022/02/12 08:25:50;;;;;;;23.02;12.48;;;-0.50;34.10;;;;;;7387148;19;20014;-59
2022/02/12 08:28:22;;;;;;;23.77;12.10;;;-0.40;33.50;;;;;;7366405;19;20404;-59
2022/02/12 08:30:54;;;;;;;28.40;14.82;;;-0.30;33.70;;;;;;7366166;19;20026;-59
2022/02/12 08:33:24;;;;;;;23.98;13.57;;;-0.20;31.80;;;;;;7362690;19;20006;-60
2022/02/12 08:35:56;;;;;;;20.38;11.77;;;-0.20;31.00;;;;;;7366215;19;20037;-59
2022/02/12 08:38:26;;;;;;;22.15;12.35;;;0.10;30.50;;;;;;7367151;19;20021;-59
2022/02/12 08:40:56;;;;;;;23.00;12.77;;;0.20;30.00;;;;;;7385576;19;20006;-59
2022/02/12 08:43:29;;;;;;;21.83;11.93;;;0.20;28.80;;;;;;7363484;19;20074;-59
2022/02/12 08:46:01;;;;;;;20.65;11.63;;;0.30;28.50;;;;;;7367393;19;20352;-59
2022/02/12 08:48:31;;;;;;;22.50;12.80;;;0.30;28.00;;;;;;7366297;19;20086;-59
2022/02/12 08:51:03;;;;;;;23.77;12.38;;;0.30;26.80;;;;;;7363382;19;20010;-59
2022/02/12 08:53:33;;;;;;;19.63;10.13;;;0.40;26.80;;;;;;7364429;19;20004;-58
2022/02/12 08:56:03;;;;;;;21.08;9.90;;;0.40;25.30;;;;;;7387313;19;20031;-59
2022/02/12 08:58:35;;;;;;;18.77;9.63;;;0.60;25.80;;;;;;7365297;19;20025;-57
2022/02/12 09:01:05;;;;;;;30.27;11.60;;;0.70;23.90;;;;;;7363584;19;20415;-59
2022/02/12 09:03:35;;;;;;;17.55;9.07;;;0.80;22.50;;;;;;7360061;19;20022;-59
2022/02/12 09:06:05;;;;;;;17.38;9.13;;;0.80;21.70;;;;;;7364043;19;21192;-58
2022/02/12 09:08:35;;;;;;;19.20;8.88;;;0.90;21.10;;;;;;7365461;19;20127;-58
2022/02/12 09:11:05;;;;;;;17.98;8.27;;;0.90;20.90;;;;;;7383647;19;20022;-59
2022/02/12 09:13:37;;;;;;;14.88;8.30;;;1.10;20.60;;;;;;7358992;19;20007;-59
2022/02/12 09:16:08;;;;;;;16.83;8.63;;;1.20;17.70;;;;;;7365785;19;20021;-61
2022/02/12 09:18:38;;;;;;;16.75;8.65;;;1.20;17.70;;;;;;7364311;19;20078;-59
2022/02/12 09:21:10;;;;;;;21.63;9.65;;;1.30;17.30;;;;;;7362499;19;20018;-58
2022/02/12 09:23:40;;;;;;;20.92;8.50;;;1.50;17.90;;;;;;7362056;19;20018;-59
2022/02/12 09:26:10;;;;;;;17.40;7.75;;;1.50;16.00;;;;;;7384545;19;20130;-59
2022/02/12 09:28:43;;;;;;;20.23;9.00;;;1.50;15.20;;;;;;7363063;19;20011;-58
2022/02/12 09:31:13;;;;;;;14.35;7.65;;;1.60;14.70;;;;;;7362857;19;20026;-58
2022/02/12 09:33:43;;;;;;;15.18;6.60;;;1.70;14.00;;;;;;7362206;19;20382;-59
2022/02/12 09:36:13;;;;;;;16.25;8.32;;;1.80;13.60;;;;;;7363837;19;20483;-59
2022/02/12 09:38:43;;;;;;;13.02;7.45;;;1.90;13.70;;;;;;7364242;19;20002;-59
2022/02/12 09:41:15;;;;;;;16.75;8.23;;;2.00;11.10;;;;;;7376916;19;20021;-59
2022/02/12 09:43:49;;;;;;;12.82;6.90;;;2.00;12.90;;;;;;7379529;19;20019;-58
2022/02/12 09:47:07;;;;;;;18.13;7.78;;;2.10;11.90;;;;;;7363736;19;21453;-59
2022/02/12 09:49:37;;;;;;;20.20;7.25;;;2.20;11.70;;;;;;7362331;19;20011;-58
2022/02/12 09:52:08;;;;;;;13.20;7.88;;;2.40;11.70;;;;;;7359843;19;20015;-59
2022/02/12 09:54:40;;;;;;;15.52;8.05;;;2.60;11.90;;;;;;7359054;19;20007;-59
2022/02/12 09:57:10;;;;;;;15.30;7.57;;;2.60;10.80;;;;;;7365582;19;20066;-60
2022/02/12 09:59:42;;;;;;;14.05;8.00;;;2.70;9.70;;;;;;7362448;19;20006;-60
2022/02/12 10:02:19;;;;;;;13.38;6.93;;;2.70;9.70;;;;;;7377513;19;20018;-60
2022/02/12 10:04:49;;;;;;;14.85;6.88;;;2.80;8.90;;;;;;7382835;19;20628;-58
2022/02/12 10:07:26;;;;;;;15.65;7.97;;;2.80;8.00;;;;;;7364382;19;20003;-59
2022/02/12 10:10:13;;;;;;;11.48;6.35;;;2.80;7.90;;;;;;7361048;19;20474;-59
2022/02/12 10:12:43;;;;;;;18.48;7.85;;;2.90;7.40;;;;;;7356500;19;20029;-59
2022/02/12 10:15:26;;;;;;;14.75;7.68;;;2.90;7.70;;;;;;7366160;19;20157;-59
2022/02/12 10:17:57;;;;;;;14.35;7.57;;;3.00;7.70;;;;;;7362391;19;20019;-59
2022/02/12 10:20:30;;;;;;;16.10;7.95;;;3.20;7.80;;;;;;7359939;19;20482;-59
2022/02/12 10:23:13;;;;;;;17.08;8.20;;;3.40;7.10;;;;;;7381975;19;20078;-59
2022/02/12 10:25:45;;;;;;;15.95;7.53;;;3.40;7.00;;;;;;7361622;19;20074;-59
2022/02/12 10:28:16;;;;;;;14.50;6.65;;;3.50;6.20;;;;;;7361829;19;20017;-60
2022/02/12 10:30:49;;;;;;;17.23;7.63;;;3.60;5.00;;;;;;7360693;19;20010;-60
2022/02/12 10:33:19;;;;;;;13.98;6.75;;;3.50;5.10;;;;;;7356895;19;20018;-59
2022/02/12 10:35:58;;;;;;;16.08;7.43;;;3.30;5.80;;;;;;7361373;19;20006;-58
2022/02/12 10:38:31;;;;;;;13.82;6.82;;;3.40;5.10;;;;;;7364145;19;20073;-59
2022/02/12 10:41:08;;;;;;;15.40;7.25;;;3.60;5.70;;;;;;7382357;19;20081;-59
2022/02/12 10:43:39;;;;;;;15.40;7.00;;;3.80;5.80;;;;;;7357304;19;20103;-59
2022/02/12 10:46:13;;;;;;;15.77;6.82;;;3.90;5.80;;;;;;7363168;19;20459;-59
2022/02/12 10:48:43;;;;;;;15.00;7.30;;;3.90;4.60;;;;;;7363668;19;20027;-60
2022/02/12 10:51:17;;;;;;;12.68;7.53;;;4.10;4.70;;;;;;7357233;19;20014;-59
2022/02/12 10:54:05;;;;;;;18.45;6.85;;;4.10;3.00;;;;;;7359477;19;20014;-59
2022/02/12 10:56:51;;;;;;;14.30;6.70;;;4.30;3.40;;;;;;7363706;19;20014;-59
2022/02/12 10:59:22;;;;;;;14.93;7.15;;;4.20;2.30;;;;;;7362267;19;20126;-60
2022/02/12 11:01:55;;;;;;;15.40;6.75;;;4.30;2.20;;;;;;7379176;19;20021;-60
2022/02/12 11:04:27;;;;;;;14.32;6.68;;;4.40;2.00;;;;;;7357757;19;20044;-60
2022/02/12 11:06:57;;;;;;;14.85;6.55;;;4.50;1.80;;;;;;7360641;19;20010;-60
2022/02/12 11:09:27;;;;;;;16.15;6.72;;;4.50;1.00;;;;;;7360145;19;20090;-59
2022/02/12 11:11:57;;;;;;;18.38;6.43;;;4.40;1.00;;;;;;7359770;19;20347;-60
2022/02/12 11:14:32;;;;;;;15.75;5.70;;;4.60;1.00;;;;;;7356810;19;20087;-59
2022/02/12 11:17:10;;;;;;;;;;;4.70;1.00;;;;;;7383163;19;20014;-58
2022/02/12 11:19:41;;;;;;;11.45;5.47;;;4.60;1.00;;;;;;7361600;19;20016;-59
2022/02/12 11:22:12;;;;;;;11.93;5.68;;;4.60;1.00;;;;;;7358407;19;20111;-59
2022/02/12 11:24:44;;;;;;;11.80;5.70;;;4.60;1.00;;;;;;7356707;19;20020;-58
2022/02/12 11:27:23;;;;;;;12.48;6.00;;;4.80;1.00;;;;;;7363253;19;20675;-58
2022/02/12 11:29:54;;;;;;;11.40;5.50;;;5.00;1.00;;;;;;7360538;19;20011;-58
2022/02/12 11:32:30;;;;;;;12.23;5.60;;;5.10;1.00;;;;;;7355031;19;20014;-59
2022/02/12 11:35:27;;;;;;;12.07;5.30;;;5.20;1.00;;;;;;7381662;19;20014;-59
2022/02/12 11:37:59;;;;;;;11.20;4.93;;;5.20;1.00;;;;;;7361478;19;20011;-59
2022/02/12 11:40:30;;;;;;;7.05;4.03;;;5.30;1.00;;;;;;7355816;19;20039;-59
2022/02/12 11:43:03;;;;;;;12.95;4.88;;;5.30;1.00;;;;;;7356513;19;20006;-59
2022/02/12 11:45:38;;;;;;;7.45;4.05;;;5.50;1.00;;;;;;7347114;19;20014;-59
2022/02/12 11:48:21;;;;;;;11.32;3.95;;;5.40;1.00;;;;;;7359039;19;20021;-59
2022/02/12 11:50:53;;;;;;;6.82;3.40;;;5.60;1.00;;;;;;7365120;19;20015;-58
2022/02/12 11:53:35;;;;;;;6.78;3.58;;;5.50;1.00;;;;;;7364577;19;20006;-60
2022/02/12 11:56:08;;;;;;;11.30;4.28;;;5.60;1.00;;;;;;7388437;19;20013;-60
2022/02/12 11:59:10;;;;;;;8.38;3.92;;;5.50;1.00;;;;;;7366382;19;20006;-60
2022/02/12 12:01:53;;;;;;;10.68;4.65;;;5.70;1.00;;;;;;7364772;19;20030;-60
2022/02/12 12:04:30;;;;;;;9.02;3.70;;;5.80;1.00;;;;;;7363461;19;20011;-61
2022/02/12 12:07:08;;;;;;;9.77;3.95;;;5.80;1.00;;;;;;7366524;19;20014;-60
2022/02/12 12:09:40;;;;;;;10.70;4.35;;;5.80;1.00;;;;;;7365552;19;20086;-60
2022/02/12 12:12:19;;;;;;;8.50;3.63;;;5.80;1.00;;;;;;7366666;19;20035;-60
2022/02/12 12:14:50;;;;;;;9.35;3.30;;;6.00;1.00;;;;;;7362576;19;20474;-59
2022/02/12 12:17:27;;;;;;;8.90;3.50;;;6.00;1.00;;;;;;7365373;19;20088;-60
2022/02/12 12:20:00;;;;;;;8.38;3.75;;;6.00;1.00;;;;;;7387483;19;20014;-60
2022/02/12 12:22:32;;;;;;;10.40;3.33;;;5.90;1.00;;;;;;7362384;19;20086;-60
2022/02/12 12:25:02;;;;;;;8.18;3.70;;;6.00;1.00;;;;;;7363474;19;20036;-60
2022/02/12 12:27:35;;;;;;;9.88;3.63;;;6.10;1.00;;;;;;7366408;19;20032;-58
2022/02/12 12:32:58;;;;;;;7.68;3.60;;;6.50;1.00;;;;;;7360513;19;20032;-60
2022/02/12 12:35:31;;;;;;;7.00;3.60;;;6.40;1.00;;;;;;7366439;19;20010;-59
2022/02/12 12:38:01;;;;;;;9.10;3.55;;;6.30;1.00;;;;;;7388515;19;20082;-59
2022/02/12 12:40:34;;;;;;;6.10;3.40;;;6.50;1.00;;;;;;7361487;19;20006;-59
2022/02/12 12:43:07;;;;;;;6.18;3.13;;;6.70;1.00;;;;;;7361157;19;20018;-60
2022/02/12 12:45:40;;;;;;;5.18;2.90;;;6.80;1.00;;;;;;7366746;19;20390;-59
2022/02/12 12:48:11;;;;;;;9.13;2.80;;;6.70;1.00;;;;;;7362801;19;20010;-59
2022/02/12 12:50:45;;;;;;;7.35;2.80;;;6.60;1.00;;;;;;7363611;19;20096;-59
2022/02/12 12:53:16;;;;;;;3.33;2.28;;;6.60;1.00;;;;;;7362847;19;20011;-60
2022/02/12 12:55:48;;;;;;;3.95;2.50;;;6.60;1.00;;;;;;7385401;19;20487;-60
2022/02/12 12:58:20;;;;;;;5.78;2.15;;;6.70;1.00;;;;;;7366068;19;20015;-59
2022/02/12 13:00:49;;;;;;;6.68;2.42;;;6.80;1.00;;;;;;7361802;19;20466;-60
2022/02/12 13:03:19;;;;;;;8.10;3.05;;;6.90;1.00;;;;;;7361632;19;20018;-60
2022/02/12 13:05:52;;;;;;;6.80;2.80;;;6.80;1.00;;;;;;7365650;19;20017;-60
2022/02/12 13:08:22;;;;;;;5.10;2.53;;;6.80;1.00;;;;;;7364407;19;20207;-60
2022/02/12 13:10:52;;;;;;;10.48;2.97;;;6.90;1.00;;;;;;7381033;19;20018;-60
2022/02/12 13:13:23;;;;;;;7.88;2.58;;;6.80;1.00;;;;;;7359694;19;20011;-59
2022/02/12 13:15:52;;;;;;;6.55;2.85;;;6.70;1.00;;;;;;7366093;19;20018;-58